createdAt,value
2019-03-03T00:00:36.572Z,8.47
2019-03-03T00:03:05.567Z,12.70
2019-03-03T00:05:34.521Z,11.87
2019-03-03T00:08:03.370Z,10.93
2019-03-03T00:10:32.454Z,12.57
2019-03-03T00:13:02.007Z,10.10
2019-03-03T00:15:30.870Z,12.60
2019-03-03T00:17:59.850Z,14.63
2019-03-03T00:20:28.979Z,18.30
2019-03-03T00:22:57.890Z,15.23
2019-03-03T00:25:26.703Z,12.43
2019-03-03T00:27:55.679Z,15.70
2019-03-03T00:30:24.733Z,10.80
2019-03-03T00:32:53.770Z,13.50
2019-03-03T00:35:22.706Z,13.53
2019-03-03T00:38:22.897Z,9.60
2019-03-03T00:41:16.773Z,13.10
2019-03-03T00:44:10.634Z,9.37
2019-03-03T00:46:58.521Z,12.20
2019-03-03T00:49:45.162Z,15.90
2019-03-03T00:52:23.846Z,8.17
2019-03-03T00:55:03.119Z,11.57
2019-03-03T00:57:43.089Z,17.07
2019-03-03T01:00:36.817Z,18.20
2019-03-03T01:03:31.095Z,11.93
2019-03-03T01:06:13.972Z,14.23
2019-03-03T01:09:04.474Z,12.20
2019-03-03T01:11:55.206Z,19.50
2019-03-03T01:14:46.315Z,23.90
2019-03-03T01:17:32.401Z,14.10
2019-03-03T01:20:15.681Z,18.97
2019-03-03T01:23:21.634Z,25.37
2019-03-03T01:25:50.474Z,11.07
2019-03-03T01:28:19.414Z,14.57
2019-03-03T01:30:48.387Z,15.37
2019-03-03T01:33:17.391Z,12.50
2019-03-03T01:35:46.367Z,10.63
2019-03-03T01:38:15.366Z,11.60
2019-03-03T01:40:44.289Z,15.80
2019-03-03T01:43:13.125Z,15.33
2019-03-03T01:45:42.038Z,18.93
2019-03-03T01:48:10.925Z,9.30
2019-03-03T01:50:39.883Z,9.13
2019-03-03T01:53:08.799Z,16.03
2019-03-03T01:55:37.666Z,13.20
2019-03-03T01:58:06.586Z,15.77
2019-03-03T02:00:35.438Z,13.60
2019-03-03T02:03:04.792Z,9.67
2019-03-03T02:05:33.733Z,12.73
2019-03-03T02:08:03.314Z,12.63
2019-03-03T02:10:32.250Z,19.47
2019-03-03T02:13:01.358Z,21.63
2019-03-03T02:15:30.371Z,12.80
2019-03-03T02:17:59.322Z,14.80
2019-03-03T02:20:28.198Z,10.53
2019-03-03T02:22:57.132Z,18.07
2019-03-03T02:25:26.023Z,11.77
2019-03-03T02:27:54.972Z,11.07
2019-03-03T02:30:23.902Z,21.03
2019-03-03T02:32:52.736Z,25.73
2019-03-03T02:35:21.740Z,13.47
2019-03-03T02:37:50.561Z,11.40
2019-03-03T02:40:19.548Z,22.67
2019-03-03T02:42:48.619Z,15.00
2019-03-03T02:45:18.039Z,15.97
2019-03-03T02:47:46.966Z,13.27
2019-03-03T02:50:15.988Z,17.13
2019-03-03T02:52:45.085Z,11.93
2019-03-03T02:55:14.176Z,11.60
2019-03-03T02:57:43.180Z,8.10
2019-03-03T03:00:18.136Z,13.83
2019-03-03T03:02:55.152Z,11.27
2019-03-03T03:05:33.244Z,21.90
2019-03-03T03:08:08.166Z,17.83
2019-03-03T03:10:44.433Z,20.00
2019-03-03T03:13:19.270Z,25.40
2019-03-03T03:16:16.337Z,12.93
2019-03-03T03:19:02.962Z,9.10
2019-03-03T03:21:57.056Z,12.43
2019-03-03T03:24:39.597Z,17.23
2019-03-03T03:27:18.269Z,17.03
2019-03-03T03:29:57.710Z,17.00
2019-03-03T03:32:35.106Z,13.03
2019-03-03T03:35:30.026Z,15.40
2019-03-03T03:38:16.815Z,21.40
2019-03-03T03:41:03.136Z,15.80
2019-03-03T03:43:54.191Z,17.13
2019-03-03T03:46:38.290Z,20.10
2019-03-03T03:49:29.411Z,10.97
2019-03-03T03:52:20.556Z,18.30
2019-03-03T03:55:07.988Z,19.57
2019-03-03T03:57:48.943Z,12.27
2019-03-03T04:00:35.449Z,18.10
2019-03-03T04:03:23.506Z,17.87
2019-03-03T04:06:02.930Z,15.27
2019-03-03T04:08:54.554Z,15.77
2019-03-03T04:11:45.562Z,26.37
2019-03-03T04:14:39.686Z,12.37
2019-03-03T04:17:26.191Z,11.00
2019-03-03T04:20:11.031Z,12.60
2019-03-03T04:23:04.751Z,16.00
2019-03-03T04:25:49.972Z,14.00
2019-03-03T04:28:44.065Z,20.23
2019-03-03T04:31:33.449Z,24.73
2019-03-03T04:34:17.582Z,14.37
2019-03-03T04:37:07.882Z,21.57
2019-03-03T04:39:44.973Z,19.73
2019-03-03T04:42:39.077Z,19.70
2019-03-03T04:45:25.167Z,16.43
2019-03-03T04:48:11.829Z,11.00
2019-03-03T04:50:58.570Z,11.03
2019-03-03T04:53:49.538Z,10.17
2019-03-03T04:56:27.765Z,15.50
2019-03-03T04:59:03.421Z,23.37
2019-03-03T05:01:51.365Z,12.90
2019-03-03T05:04:29.495Z,14.13
2019-03-03T05:07:11.694Z,15.47
2019-03-03T05:09:59.837Z,17.20
2019-03-03T05:12:50.902Z,13.80
2019-03-03T05:15:38.195Z,10.53
2019-03-03T05:18:17.859Z,15.10
2019-03-03T05:20:48.603Z,16.40
2019-03-03T05:23:17.408Z,9.03
2019-03-03T05:25:46.302Z,12.87
2019-03-03T05:28:15.197Z,10.00
2019-03-03T05:30:44.012Z,14.13
2019-03-03T05:33:12.927Z,17.43
2019-03-03T05:35:41.821Z,14.93
2019-03-03T05:38:10.801Z,15.97
2019-03-03T05:40:39.688Z,11.37
2019-03-03T05:43:08.510Z,15.77
2019-03-03T05:45:37.414Z,11.30
2019-03-03T05:48:06.246Z,16.53
2019-03-03T05:50:35.122Z,16.57
2019-03-03T05:53:04.087Z,16.33
2019-03-03T05:55:32.905Z,11.00
2019-03-03T05:58:01.826Z,14.23
2019-03-03T06:00:30.794Z,12.00
2019-03-03T06:02:59.635Z,11.03
2019-03-03T06:05:28.557Z,8.13
2019-03-03T06:07:57.382Z,20.63
2019-03-03T06:10:26.276Z,12.63
2019-03-03T06:12:55.119Z,6.13
2019-03-03T06:15:24.137Z,10.40
2019-03-03T06:17:52.985Z,11.07
2019-03-03T06:20:21.841Z,8.80
2019-03-03T06:22:50.754Z,10.83
2019-03-03T06:25:19.676Z,8.87
2019-03-03T06:27:48.477Z,12.13
2019-03-03T06:30:17.445Z,6.30
2019-03-03T06:32:46.258Z,9.10
2019-03-03T06:35:15.196Z,5.97
2019-03-03T06:37:44.014Z,12.00
2019-03-03T06:40:12.975Z,7.03
2019-03-03T06:42:41.801Z,9.40
2019-03-03T06:45:11.173Z,11.53
2019-03-03T06:47:39.984Z,9.93
2019-03-03T06:50:10.337Z,6.07
2019-03-03T06:52:39.371Z,9.63
2019-03-03T06:55:08.777Z,5.97
2019-03-03T06:57:37.755Z,6.90
2019-03-03T07:00:10.272Z,7.30
2019-03-03T07:02:39.211Z,11.07
2019-03-03T07:05:09.143Z,6.80
2019-03-03T07:07:38.220Z,7.27
2019-03-03T07:10:09.597Z,8.47
2019-03-03T07:12:38.640Z,8.90
2019-03-03T07:15:09.536Z,4.43
2019-03-03T07:17:38.449Z,5.47
2019-03-03T07:20:08.451Z,8.97
2019-03-03T07:22:37.307Z,8.83
2019-03-03T07:25:07.593Z,6.57
2019-03-03T07:27:36.474Z,5.17
2019-03-03T07:30:06.851Z,8.67
2019-03-03T07:32:37.674Z,7.50
2019-03-03T07:35:06.698Z,9.10
2019-03-03T07:37:35.490Z,8.97
2019-03-03T07:40:04.605Z,10.57
2019-03-03T07:42:33.494Z,8.27
2019-03-03T07:45:04.520Z,7.50
2019-03-03T07:47:32.942Z,16.00
2019-03-03T07:50:01.743Z,10.60
2019-03-03T07:52:32.776Z,10.40
2019-03-03T07:55:01.194Z,6.47
2019-03-03T07:57:30.123Z,13.73
2019-03-03T07:59:58.921Z,13.53
2019-03-03T08:02:27.924Z,10.43
2019-03-03T08:04:56.728Z,12.43
2019-03-03T08:07:25.527Z,12.10
2019-03-03T08:09:54.433Z,12.63
2019-03-03T08:12:23.634Z,9.97
2019-03-03T08:14:52.505Z,12.47
2019-03-03T08:17:21.310Z,11.17
2019-03-03T08:19:50.211Z,9.10
2019-03-03T08:22:19.038Z,11.07
2019-03-03T08:24:47.975Z,16.17
2019-03-03T08:27:16.777Z,9.03
2019-03-03T08:29:45.618Z,15.50
2019-03-03T08:32:14.555Z,14.37
2019-03-03T08:34:43.385Z,7.67
2019-03-03T08:37:12.237Z,10.10
2019-03-03T08:39:41.139Z,8.73
2019-03-03T08:42:27.601Z,10.20
2019-03-03T08:45:13.589Z,10.53
2019-03-03T08:48:02.031Z,10.07
2019-03-03T08:50:35.665Z,9.57
2019-03-03T08:53:10.022Z,9.33
2019-03-03T08:56:03.035Z,9.43
2019-03-03T08:58:43.899Z,6.97
2019-03-03T09:01:30.274Z,9.50
2019-03-03T09:04:04.782Z,6.63
2019-03-03T09:06:45.161Z,5.40
2019-03-03T09:09:27.322Z,6.37
2019-03-03T09:12:15.302Z,7.23
2019-03-03T09:14:55.853Z,4.80
2019-03-03T09:17:43.765Z,8.30
2019-03-03T09:20:34.863Z,4.47
2019-03-03T09:23:22.863Z,5.50
2019-03-03T09:26:01.862Z,10.43
2019-03-03T09:28:39.710Z,7.97
2019-03-03T09:31:27.777Z,8.57
2019-03-03T09:34:13.595Z,7.40
2019-03-03T09:37:00.232Z,8.00
2019-03-03T09:39:46.940Z,6.30
2019-03-03T09:42:40.997Z,4.20
2019-03-03T09:45:27.793Z,10.37
2019-03-03T09:48:09.179Z,7.30
2019-03-03T09:51:05.979Z,10.43
2019-03-03T09:53:59.661Z,3.20
2019-03-03T09:56:43.306Z,3.63
2019-03-03T09:59:31.282Z,3.10
2019-03-03T10:02:25.135Z,5.70
2019-03-03T10:05:08.996Z,7.63
2019-03-03T10:07:55.570Z,4.13
2019-03-03T10:10:43.715Z,4.93
2019-03-03T10:13:19.474Z,4.40
2019-03-03T10:16:03.123Z,4.30
2019-03-03T10:18:39.212Z,3.97
2019-03-03T10:21:26.573Z,5.40
2019-03-03T10:24:23.482Z,6.10
2019-03-03T10:27:03.115Z,4.90
2019-03-03T10:29:47.530Z,4.07
2019-03-03T10:32:22.491Z,4.40
2019-03-03T10:35:05.339Z,4.83
2019-03-03T10:37:41.243Z,5.57
2019-03-03T10:40:32.482Z,5.00
2019-03-03T10:43:10.702Z,6.67
2019-03-03T10:45:57.289Z,6.60
2019-03-03T10:48:35.302Z,5.07
2019-03-03T10:51:20.306Z,6.47
2019-03-03T10:53:55.260Z,5.37
2019-03-03T10:56:43.254Z,7.03
2019-03-03T10:59:19.108Z,5.00
2019-03-03T11:02:15.942Z,6.03
2019-03-03T11:05:06.965Z,6.50
2019-03-03T11:07:49.458Z,7.63
2019-03-03T11:10:46.714Z,6.50
2019-03-03T11:13:21.719Z,7.37
2019-03-03T11:16:04.242Z,6.27
2019-03-03T11:18:40.917Z,6.83
2019-03-03T11:21:33.424Z,5.10
2019-03-03T11:24:16.430Z,10.63
2019-03-03T11:26:52.996Z,7.70
2019-03-03T11:29:50.026Z,9.77
2019-03-03T11:32:43.889Z,5.77
2019-03-03T11:35:34.686Z,6.47
2019-03-03T11:38:21.150Z,7.20
2019-03-03T11:41:01.113Z,7.43
2019-03-03T11:43:54.942Z,8.80
2019-03-03T11:46:36.195Z,6.73
2019-03-03T11:49:13.484Z,6.53
2019-03-03T11:51:47.063Z,8.40
2019-03-03T11:54:26.103Z,8.30
2019-03-03T11:57:00.329Z,7.10
2019-03-03T11:59:39.707Z,8.80
2019-03-03T12:02:33.927Z,9.90
2019-03-03T12:05:20.353Z,9.73
2019-03-03T12:08:02.558Z,5.07
2019-03-03T12:10:53.654Z,6.90
2019-03-03T12:13:28.502Z,8.50
2019-03-03T12:16:28.317Z,8.20
2019-03-03T12:19:15.995Z,6.50
2019-03-03T12:21:49.352Z,7.47
2019-03-03T12:24:37.348Z,8.80
2019-03-03T12:27:17.606Z,9.03
2019-03-03T12:30:04.085Z,10.73
2019-03-03T12:32:46.005Z,8.77
2019-03-03T12:35:20.363Z,7.10
2019-03-03T12:37:58.549Z,7.33
2019-03-03T12:40:36.103Z,8.40
2019-03-03T12:43:22.789Z,5.93
2019-03-03T12:46:17.039Z,9.23
2019-03-03T12:49:11.150Z,8.53
2019-03-03T12:52:05.004Z,10.40
2019-03-03T12:54:42.988Z,12.40
2019-03-03T12:57:35.284Z,8.57
2019-03-03T13:00:19.691Z,10.83
2019-03-03T13:03:06.478Z,13.03
2019-03-03T13:05:57.514Z,10.13
2019-03-03T13:08:45.153Z,13.67
2019-03-03T13:11:26.325Z,12.07
2019-03-03T13:14:08.114Z,9.27
2019-03-03T13:16:56.030Z,11.90
2019-03-03T13:19:56.425Z,7.50
2019-03-03T13:22:40.313Z,8.40
2019-03-03T13:25:27.430Z,12.00
2019-03-03T13:28:04.514Z,7.27
2019-03-03T13:30:51.398Z,8.70
2019-03-03T13:33:31.999Z,15.03
2019-03-03T13:36:17.771Z,16.70
2019-03-03T13:39:02.509Z,9.00
2019-03-03T13:41:57.655Z,9.67
2019-03-03T13:44:26.643Z,16.50
2019-03-03T13:46:55.607Z,14.50
2019-03-03T13:49:24.763Z,13.40
2019-03-03T13:51:53.633Z,15.47
2019-03-03T13:54:22.593Z,9.03
2019-03-03T13:56:51.689Z,19.43
2019-03-03T13:59:20.679Z,12.87
2019-03-03T14:01:50.238Z,15.17
2019-03-03T14:04:38.510Z,17.70
2019-03-03T14:07:07.442Z,16.47
2019-03-03T14:09:36.394Z,14.57
2019-03-03T14:12:05.296Z,13.73
2019-03-03T14:14:34.274Z,13.70
2019-03-03T14:17:03.198Z,14.53
2019-03-03T14:19:32.058Z,14.17
2019-03-03T14:22:00.977Z,18.57
2019-03-03T14:24:29.894Z,14.47
2019-03-03T14:26:58.759Z,21.43
2019-03-03T14:29:46.805Z,18.63
2019-03-03T14:32:15.751Z,22.77
2019-03-03T14:34:44.578Z,16.57
2019-03-03T14:37:13.516Z,14.97
2019-03-03T14:39:42.501Z,13.77
2019-03-03T14:42:11.511Z,14.10
2019-03-03T14:44:40.448Z,11.23
2019-03-03T14:47:09.425Z,14.07
2019-03-03T14:49:38.398Z,11.47
2019-03-03T14:52:07.293Z,21.03
2019-03-03T14:54:36.169Z,17.20
2019-03-03T14:57:05.091Z,13.10
2019-03-03T14:59:33.906Z,25.93
2019-03-03T15:02:02.749Z,14.73
2019-03-03T15:04:31.842Z,11.83
2019-03-03T15:07:00.811Z,15.30
2019-03-03T15:09:29.646Z,13.63
2019-03-03T15:11:58.502Z,14.03
2019-03-03T15:14:27.397Z,23.37
2019-03-03T15:16:56.360Z,15.03
2019-03-03T15:19:25.275Z,20.33
2019-03-03T15:21:54.260Z,14.93
2019-03-03T15:24:23.238Z,14.00
2019-03-03T15:26:52.243Z,12.77
2019-03-03T15:29:21.281Z,18.33
2019-03-03T15:31:50.278Z,12.37
2019-03-03T15:34:19.159Z,15.23
2019-03-03T15:36:47.998Z,13.57
2019-03-03T15:39:16.951Z,10.83
2019-03-03T15:41:45.854Z,13.70
2019-03-03T15:44:14.686Z,17.30
2019-03-03T15:46:43.615Z,14.30
2019-03-03T15:49:12.446Z,21.23
2019-03-03T15:51:41.265Z,12.97
2019-03-03T15:54:10.125Z,18.90
2019-03-03T15:56:38.934Z,13.00
2019-03-03T15:59:07.896Z,20.43
2019-03-03T16:01:37.779Z,17.93
2019-03-03T16:04:06.759Z,17.37
2019-03-03T16:06:35.657Z,17.70
2019-03-03T16:09:07.279Z,14.00
2019-03-03T16:11:36.280Z,17.60
2019-03-03T16:14:05.258Z,16.17
2019-03-03T16:16:34.890Z,10.87
2019-03-03T16:19:03.859Z,12.63
2019-03-03T16:21:32.872Z,16.90
2019-03-03T16:24:01.821Z,17.77
2019-03-03T16:26:30.657Z,15.90
2019-03-03T16:28:59.498Z,19.43
2019-03-03T16:31:28.397Z,17.07
2019-03-03T16:33:57.247Z,15.43
2019-03-03T16:36:26.165Z,21.03
2019-03-03T16:38:55.047Z,18.73
2019-03-03T16:41:23.938Z,16.60
2019-03-03T16:43:52.748Z,13.73
2019-03-03T16:46:21.599Z,15.60
2019-03-03T16:48:50.588Z,20.93
2019-03-03T16:51:19.412Z,15.73
2019-03-03T16:53:48.253Z,17.50
2019-03-03T16:56:17.065Z,16.20
2019-03-03T16:58:45.919Z,15.17
2019-03-03T17:01:14.747Z,18.80
2019-03-03T17:03:43.732Z,19.20
2019-03-03T17:06:12.673Z,22.90
2019-03-03T17:08:41.585Z,17.53
2019-03-03T17:11:10.423Z,16.47
2019-03-03T17:13:39.266Z,18.03
2019-03-03T17:16:08.261Z,15.20
2019-03-03T17:18:37.174Z,15.67
2019-03-03T17:21:06.213Z,16.47
2019-03-03T17:23:35.126Z,19.90
2019-03-03T17:26:04.031Z,12.20
2019-03-03T17:28:32.946Z,15.37
2019-03-03T17:31:01.759Z,19.73
2019-03-03T17:33:30.608Z,15.50
2019-03-03T17:35:59.513Z,13.07
2019-03-03T17:38:28.338Z,15.50
2019-03-03T17:40:57.173Z,17.60
2019-03-03T17:43:26.017Z,16.57
2019-03-03T17:45:54.993Z,18.80
2019-03-03T17:48:23.852Z,14.50
2019-03-03T17:50:53.353Z,21.73
2019-03-03T17:53:22.347Z,18.07
2019-03-03T17:55:51.190Z,11.93
2019-03-03T17:58:20.110Z,12.57
2019-03-03T18:00:49.254Z,20.73
2019-03-03T18:03:18.223Z,15.40
2019-03-03T18:05:47.096Z,13.60
2019-03-03T18:08:15.988Z,15.57
2019-03-03T18:10:44.975Z,18.07
2019-03-03T18:13:13.874Z,15.43
2019-03-03T18:15:42.702Z,13.50
2019-03-03T18:18:11.542Z,12.30
2019-03-03T18:20:40.561Z,13.53
2019-03-03T18:23:09.422Z,15.17
2019-03-03T18:25:38.390Z,18.23
2019-03-03T18:28:07.323Z,15.23
2019-03-03T18:30:36.293Z,12.70
2019-03-03T18:33:05.162Z,14.00
2019-03-03T18:35:34.202Z,21.67
2019-03-03T18:38:03.089Z,10.80
2019-03-03T18:40:32.062Z,13.37
2019-03-03T18:43:01.034Z,17.00
2019-03-03T18:45:30.018Z,15.13
2019-03-03T18:47:58.912Z,16.47
2019-03-03T18:50:27.902Z,17.57
2019-03-03T18:52:56.899Z,13.83
2019-03-03T18:55:25.842Z,20.87
2019-03-03T18:57:54.757Z,15.93
2019-03-03T19:00:24.803Z,14.73
2019-03-03T19:02:53.799Z,13.83
2019-03-03T19:05:23.056Z,17.40
2019-03-03T19:07:52.308Z,17.30
2019-03-03T19:10:22.082Z,11.93
2019-03-03T19:12:50.970Z,11.47
2019-03-03T19:15:20.100Z,16.70
2019-03-03T19:17:49.099Z,16.00
2019-03-03T19:20:18.918Z,9.60
2019-03-03T19:22:48.301Z,14.70
2019-03-03T19:25:17.315Z,12.13
2019-03-03T19:27:46.315Z,11.43
2019-03-03T19:30:20.589Z,14.67
2019-03-03T19:32:55.566Z,13.60
2019-03-03T19:35:24.493Z,12.87
2019-03-03T19:37:53.355Z,9.07
2019-03-03T19:40:22.486Z,8.83
2019-03-03T19:42:51.398Z,8.17
2019-03-03T19:45:22.765Z,9.17
2019-03-03T19:47:51.723Z,9.67
2019-03-03T19:50:20.969Z,6.50
2019-03-03T19:52:49.945Z,8.80
2019-03-03T19:55:19.138Z,10.40
2019-03-03T19:57:48.125Z,7.90
2019-03-03T20:00:23.342Z,8.53
2019-03-03T20:02:52.349Z,7.37
2019-03-03T20:05:21.367Z,9.50
2019-03-03T20:07:50.261Z,4.60
2019-03-03T20:10:19.243Z,5.00
2019-03-03T20:12:48.170Z,8.93
2019-03-03T20:15:17.213Z,10.33
2019-03-03T20:17:46.263Z,11.30
2019-03-03T20:20:16.146Z,6.50
2019-03-03T20:22:45.161Z,5.27
2019-03-03T20:25:14.283Z,8.83
2019-03-03T20:27:43.277Z,6.03
2019-03-03T20:30:14.586Z,8.07
2019-03-03T20:32:43.538Z,7.30
2019-03-03T20:35:12.560Z,10.23
2019-03-03T20:37:41.555Z,4.23
2019-03-03T20:40:12.227Z,11.30
2019-03-03T20:42:41.217Z,10.57
2019-03-03T20:45:15.216Z,4.67
2019-03-03T20:47:44.188Z,9.00
2019-03-03T20:50:15.702Z,7.70
2019-03-03T20:52:44.695Z,4.40
2019-03-03T20:55:14.796Z,3.93
2019-03-03T20:57:43.725Z,4.40
2019-03-03T21:00:15.490Z,9.23
2019-03-03T21:02:44.439Z,7.50
2019-03-03T21:05:13.462Z,5.87
2019-03-03T21:07:50.911Z,6.97
2019-03-03T21:10:15.369Z,9.33
2019-03-03T21:12:44.330Z,10.30
2019-03-03T21:15:13.658Z,6.13
2019-03-03T21:17:42.625Z,5.50
2019-03-03T21:20:13.038Z,4.03
2019-03-03T21:22:42.063Z,4.40
2019-03-03T21:25:11.708Z,10.73
2019-03-03T21:27:40.871Z,5.53
2019-03-03T21:30:15.374Z,12.50
2019-03-03T21:32:44.255Z,3.33
2019-03-03T21:35:13.477Z,4.53
2019-03-03T21:37:42.379Z,5.93
2019-03-03T21:40:12.578Z,8.80
2019-03-03T21:42:41.462Z,6.30
2019-03-03T21:45:11.514Z,6.13
2019-03-03T21:47:40.507Z,5.10
2019-03-03T21:50:11.396Z,5.80
2019-03-03T21:52:40.353Z,7.23
2019-03-03T21:55:09.582Z,3.57
2019-03-03T21:57:38.562Z,8.87
2019-03-03T22:00:14.793Z,6.03
2019-03-03T22:02:43.714Z,4.87
2019-03-03T22:05:12.738Z,12.70
2019-03-03T22:07:41.658Z,7.23
2019-03-03T22:10:10.647Z,5.53
2019-03-03T22:12:39.657Z,4.67
2019-03-03T22:15:08.667Z,3.37
2019-03-03T22:17:37.574Z,6.47
2019-03-03T22:20:06.887Z,4.90
2019-03-03T22:22:36.489Z,7.70
2019-03-03T22:25:05.577Z,9.73
2019-03-03T22:27:34.430Z,9.23
2019-03-03T22:30:03.518Z,6.50
2019-03-03T22:32:32.326Z,4.47
2019-03-03T22:35:01.298Z,3.20
2019-03-03T22:37:30.268Z,4.53
2019-03-03T22:39:59.081Z,4.00
2019-03-03T22:42:27.928Z,2.67
2019-03-03T22:44:56.748Z,5.70
2019-03-03T22:47:25.581Z,4.87
2019-03-03T22:49:54.450Z,3.47
2019-03-03T22:52:23.366Z,4.50
2019-03-03T22:54:52.190Z,6.20
2019-03-03T22:57:21.082Z,3.87
2019-03-03T22:59:49.963Z,5.03
2019-03-03T23:02:21.368Z,2.50
2019-03-03T23:05:03.810Z,2.60
2019-03-03T23:07:46.137Z,3.63
2019-03-03T23:11:08.055Z,2.87
2019-03-03T23:13:50.698Z,5.37
2019-03-03T23:16:47.749Z,2.00
2019-03-03T23:19:42.181Z,3.83
2019-03-03T23:22:39.383Z,2.40
2019-03-03T23:25:53.775Z,4.83
2019-03-03T23:28:23.857Z,4.13
2019-03-03T23:30:54.002Z,6.63
2019-03-03T23:33:22.989Z,5.20
2019-03-03T23:35:51.971Z,7.00
2019-03-03T23:38:20.864Z,5.13
2019-03-03T23:40:49.773Z,3.40
2019-03-03T23:43:19.069Z,3.77
2019-03-03T23:45:48.052Z,8.97
2019-03-03T23:48:17.027Z,2.93
2019-03-03T23:50:45.974Z,4.40
2019-03-03T23:53:14.838Z,4.63
2019-03-03T23:55:43.721Z,3.90
2019-03-03T23:58:12.621Z,5.37
